sensor_id;sensor_type;location;lat;lon;timestamp;P1;durP1;ratioP1;P2;durP2;ratioP2
44214;SDS011;29884;47.450;19.124;2023-02-28T00:00:21;7.22;;;3.65;;
44214;SDS011;29884;47.450;19.124;2023-02-28T00:02:47;7.20;;;3.50;;
44214;SDS011;29884;47.450;19.124;2023-02-28T00:05:15;5.60;;;3.60;;
44214;SDS011;29884;47.450;19.124;2023-02-28T00:07:42;8.50;;;4.25;;
44214;SDS011;29884;47.450;19.124;2023-02-28T00:10:12;7.53;;;3.30;;
44214;SDS011;29884;47.450;19.124;2023-02-28T00:12:44;9.18;;;4.10;;
44214;SDS011;29884;47.450;19.124;2023-02-28T00:15:10;6.78;;;3.63;;
44214;SDS011;29884;47.450;19.124;2023-02-28T00:17:36;7.80;;;4.20;;
44214;SDS011;29884;47.450;19.124;2023-02-28T00:20:02;8.02;;;3.85;;
44214;SDS011;29884;47.450;19.124;2023-02-28T00:22:32;9.45;;;4.00;;
44214;SDS011;29884;47.450;19.124;2023-02-28T00:24:58;8.48;;;3.80;;
44214;SDS011;29884;47.450;19.124;2023-02-28T00:27:24;8.13;;;4.13;;
44214;SDS011;29884;47.450;19.124;2023-02-28T00:29:50;9.13;;;4.20;;
44214;SDS011;29884;47.450;19.124;2023-02-28T00:32:16;7.22;;;3.85;;
44214;SDS011;29884;47.450;19.124;2023-02-28T00:34:43;6.72;;;4.40;;
44214;SDS011;29884;47.450;19.124;2023-02-28T00:37:09;6.85;;;4.00;;
44214;SDS011;29884;47.450;19.124;2023-02-28T00:39:39;8.07;;;4.53;;
44214;SDS011;29884;47.450;19.124;2023-02-28T00:42:05;8.70;;;4.50;;
44214;SDS011;29884;47.450;19.124;2023-02-28T00:44:32;7.18;;;4.45;;
44214;SDS011;29884;47.450;19.124;2023-02-28T00:46:57;8.20;;;4.60;;
44214;SDS011;29884;47.450;19.124;2023-02-28T00:49:24;8.07;;;4.40;;
44214;SDS011;29884;47.450;19.124;2023-02-28T00:51:51;7.88;;;4.40;;
44214;SDS011;29884;47.450;19.124;2023-02-28T00:54:17;8.30;;;4.40;;
44214;SDS011;29884;47.450;19.124;2023-02-28T00:56:43;7.65;;;4.30;;
44214;SDS011;29884;47.450;19.124;2023-02-28T00:59:11;7.22;;;4.25;;
44214;SDS011;29884;47.450;19.124;2023-02-28T01:01:37;9.52;;;4.45;;
44214;SDS011;29884;47.450;19.124;2023-02-28T01:04:03;9.00;;;4.68;;
44214;SDS011;29884;47.450;19.124;2023-02-28T01:06:29;7.90;;;4.22;;
44214;SDS011;29884;47.450;19.124;2023-02-28T01:08:56;8.80;;;4.85;;
44214;SDS011;29884;47.450;19.124;2023-02-28T01:11:23;10.90;;;4.47;;
44214;SDS011;29884;47.450;19.124;2023-02-28T01:13:49;8.68;;;4.55;;
44214;SDS011;29884;47.450;19.124;2023-02-28T01:16:15;9.40;;;5.07;;
44214;SDS011;29884;47.450;19.124;2023-02-28T01:18:41;8.88;;;4.60;;
44214;SDS011;29884;47.450;19.124;2023-02-28T01:21:08;7.43;;;4.75;;
44214;SDS011;29884;47.450;19.124;2023-02-28T01:23:39;8.30;;;4.97;;
44214;SDS011;29884;47.450;19.124;2023-02-28T01:26:09;8.77;;;4.93;;
44214;SDS011;29884;47.450;19.124;2023-02-28T01:28:37;8.73;;;5.38;;
44214;SDS011;29884;47.450;19.124;2023-02-28T01:31:02;7.60;;;4.68;;
44214;SDS011;29884;47.450;19.124;2023-02-28T01:33:28;10.30;;;5.28;;
44214;SDS011;29884;47.450;19.124;2023-02-28T01:36:09;10.15;;;4.90;;
44214;SDS011;29884;47.450;19.124;2023-02-28T01:38:43;9.30;;;5.38;;
44214;SDS011;29884;47.450;19.124;2023-02-28T01:41:12;10.60;;;5.25;;
44214;SDS011;29884;47.450;19.124;2023-02-28T01:46:10;9.80;;;5.32;;
44214;SDS011;29884;47.450;19.124;2023-02-28T01:48:37;9.13;;;5.50;;
44214;SDS011;29884;47.450;19.124;2023-02-28T01:51:07;10.32;;;5.85;;
44214;SDS011;29884;47.450;19.124;2023-02-28T01:53:37;12.15;;;6.10;;
44214;SDS011;29884;47.450;19.124;2023-02-28T01:56:08;10.73;;;6.43;;
44214;SDS011;29884;47.450;19.124;2023-02-28T01:58:35;10.13;;;6.13;;
44214;SDS011;29884;47.450;19.124;2023-02-28T02:01:02;11.20;;;6.13;;
44214;SDS011;29884;47.450;19.124;2023-02-28T02:03:28;13.07;;;6.15;;
44214;SDS011;29884;47.450;19.124;2023-02-28T02:05:55;15.60;;;6.53;;
44214;SDS011;29884;47.450;19.124;2023-02-28T02:08:24;12.70;;;6.60;;
44214;SDS011;29884;47.450;19.124;2023-02-28T02:19:09;13.65;;;6.72;;
44214;SDS011;29884;47.450;19.124;2023-02-28T02:37:56;12.73;;;6.45;;
44214;SDS011;29884;47.450;19.124;2023-02-28T02:40:42;12.88;;;6.38;;
44214;SDS011;29884;47.450;19.124;2023-02-28T02:43:16;12.43;;;6.30;;
44214;SDS011;29884;47.450;19.124;2023-02-28T02:45:45;11.45;;;5.80;;
44214;SDS011;29884;47.450;19.124;2023-02-28T02:48:18;12.98;;;6.10;;
44214;SDS011;29884;47.450;19.124;2023-02-28T02:50:50;10.48;;;6.07;;
44214;SDS011;29884;47.450;19.124;2023-02-28T02:53:22;13.32;;;6.50;;
44214;SDS011;29884;47.450;19.124;2023-02-28T02:55:57;12.02;;;6.00;;
44214;SDS011;29884;47.450;19.124;2023-02-28T02:58:25;9.57;;;5.75;;
44214;SDS011;29884;47.450;19.124;2023-02-28T03:00:56;11.15;;;5.72;;
44214;SDS011;29884;47.450;19.124;2023-02-28T03:03:24;10.88;;;5.28;;
44214;SDS011;29884;47.450;19.124;2023-02-28T03:05:55;9.07;;;5.28;;
44214;SDS011;29884;47.450;19.124;2023-02-28T03:08:23;8.85;;;5.35;;
44214;SDS011;29884;47.450;19.124;2023-02-28T03:10:50;9.32;;;4.90;;
44214;SDS011;29884;47.450;19.124;2023-02-28T03:27:23;10.38;;;4.45;;
44214;SDS011;29884;47.450;19.124;2023-02-28T03:30:10;6.80;;;4.03;;
44214;SDS011;29884;47.450;19.124;2023-02-28T03:33:11;8.02;;;4.45;;
44214;SDS011;29884;47.450;19.124;2023-02-28T03:35:34;8.57;;;3.95;;
44214;SDS011;29884;47.450;19.124;2023-02-28T03:38:16;6.88;;;3.80;;
44214;SDS011;29884;47.450;19.124;2023-02-28T03:40:50;8.32;;;3.72;;
44214;SDS011;29884;47.450;19.124;2023-02-28T03:43:23;8.60;;;3.95;;
44214;SDS011;29884;47.450;19.124;2023-02-28T03:45:52;7.53;;;3.90;;
44214;SDS011;29884;47.450;19.124;2023-02-28T03:48:31;7.35;;;3.15;;
44214;SDS011;29884;47.450;19.124;2023-02-28T03:51:12;7.55;;;3.63;;
44214;SDS011;29884;47.450;19.124;2023-02-28T03:54:03;10.20;;;3.60;;
44214;SDS011;29884;47.450;19.124;2023-02-28T03:56:43;8.68;;;3.45;;
44214;SDS011;29884;47.450;19.124;2023-02-28T03:59:26;10.40;;;3.80;;
44214;SDS011;29884;47.450;19.124;2023-02-28T04:01:55;9.52;;;3.55;;
44214;SDS011;29884;47.450;19.124;2023-02-28T04:04:23;7.32;;;3.63;;
44214;SDS011;29884;47.450;19.124;2023-02-28T04:06:52;6.72;;;3.50;;
44214;SDS011;29884;47.450;19.124;2023-02-28T04:09:27;7.57;;;3.78;;
44214;SDS011;29884;47.450;19.124;2023-02-28T04:11:53;9.50;;;4.47;;
44214;SDS011;29884;47.450;19.124;2023-02-28T04:14:20;8.05;;;3.70;;
44214;SDS011;29884;47.450;19.124;2023-02-28T04:16:46;7.80;;;3.78;;
44214;SDS011;29884;47.450;19.124;2023-02-28T04:19:12;6.68;;;3.67;;
44214;SDS011;29884;47.450;19.124;2023-02-28T04:21:41;7.50;;;3.92;;
44214;SDS011;29884;47.450;19.124;2023-02-28T04:24:18;9.18;;;3.65;;
44214;SDS011;29884;47.450;19.124;2023-02-28T04:26:46;7.00;;;3.30;;
44214;SDS011;29884;47.450;19.124;2023-02-28T04:29:14;11.43;;;3.85;;
44214;SDS011;29884;47.450;19.124;2023-02-28T04:31:47;8.63;;;3.70;;
44214;SDS011;29884;47.450;19.124;2023-02-28T04:34:13;9.52;;;3.80;;
44214;SDS011;29884;47.450;19.124;2023-02-28T04:36:39;6.90;;;3.10;;
44214;SDS011;29884;47.450;19.124;2023-02-28T04:39:05;7.28;;;3.40;;
44214;SDS011;29884;47.450;19.124;2023-02-28T04:41:31;8.35;;;3.35;;
44214;SDS011;29884;47.450;19.124;2023-02-28T04:43:56;8.40;;;3.80;;
44214;SDS011;29884;47.450;19.124;2023-02-28T04:46:22;4.97;;;2.83;;
44214;SDS011;29884;47.450;19.124;2023-02-28T04:48:48;5.50;;;3.10;;
44214;SDS011;29884;47.450;19.124;2023-02-28T04:51:15;6.85;;;3.25;;
44214;SDS011;29884;47.450;19.124;2023-02-28T04:53:43;6.13;;;3.28;;
44214;SDS011;29884;47.450;19.124;2023-02-28T04:56:12;7.43;;;3.80;;
44214;SDS011;29884;47.450;19.124;2023-02-28T04:58:39;6.57;;;2.92;;
44214;SDS011;29884;47.450;19.124;2023-02-28T05:01:27;5.43;;;3.33;;
44214;SDS011;29884;47.450;19.124;2023-02-28T05:03:53;6.57;;;3.15;;
44214;SDS011;29884;47.450;19.124;2023-02-28T05:06:21;6.30;;;3.50;;
44214;SDS011;29884;47.450;19.124;2023-02-28T05:08:48;6.65;;;2.78;;
44214;SDS011;29884;47.450;19.124;2023-02-28T05:11:28;7.45;;;3.10;;
44214;SDS011;29884;47.450;19.124;2023-02-28T05:13:59;7.03;;;3.30;;
44214;SDS011;29884;47.450;19.124;2023-02-28T05:16:26;6.47;;;3.95;;
44214;SDS011;29884;47.450;19.124;2023-02-28T05:18:52;9.38;;;4.28;;
44214;SDS011;29884;47.450;19.124;2023-02-28T05:23:58;6.50;;;3.60;;
44214;SDS011;29884;47.450;19.124;2023-02-28T05:26:34;6.78;;;3.63;;
44214;SDS011;29884;47.450;19.124;2023-02-28T05:29:00;7.85;;;4.60;;
44214;SDS011;29884;47.450;19.124;2023-02-28T05:31:26;6.60;;;3.10;;
44214;SDS011;29884;47.450;19.124;2023-02-28T05:33:52;8.27;;;3.90;;
44214;SDS011;29884;47.450;19.124;2023-02-28T05:36:18;7.32;;;3.90;;
44214;SDS011;29884;47.450;19.124;2023-02-28T05:38:48;6.57;;;4.10;;
44214;SDS011;29884;47.450;19.124;2023-02-28T05:41:14;5.63;;;3.38;;
44214;SDS011;29884;47.450;19.124;2023-02-28T05:43:40;5.82;;;3.60;;
44214;SDS011;29884;47.450;19.124;2023-02-28T05:46:06;12.13;;;3.72;;
44214;SDS011;29884;47.450;19.124;2023-02-28T05:48:33;7.03;;;3.60;;
44214;SDS011;29884;47.450;19.124;2023-02-28T05:51:00;7.15;;;3.33;;
44214;SDS011;29884;47.450;19.124;2023-02-28T05:53:27;6.32;;;3.28;;
44214;SDS011;29884;47.450;19.124;2023-02-28T05:55:53;6.45;;;3.25;;
44214;SDS011;29884;47.450;19.124;2023-02-28T05:58:19;7.70;;;3.83;;
44214;SDS011;29884;47.450;19.124;2023-02-28T06:00:45;5.43;;;3.42;;
44214;SDS011;29884;47.450;19.124;2023-02-28T06:03:11;7.80;;;3.67;;
44214;SDS011;29884;47.450;19.124;2023-02-28T06:05:36;6.85;;;3.75;;
44214;SDS011;29884;47.450;19.124;2023-02-28T06:08:03;8.23;;;4.13;;
44214;SDS011;29884;47.450;19.124;2023-02-28T06:10:31;7.53;;;3.70;;
44214;SDS011;29884;47.450;19.124;2023-02-28T06:13:01;8.07;;;3.78;;
44214;SDS011;29884;47.450;19.124;2023-02-28T06:15:28;7.22;;;3.70;;
44214;SDS011;29884;47.450;19.124;2023-02-28T06:17:54;8.15;;;3.30;;
44214;SDS011;29884;47.450;19.124;2023-02-28T06:20:24;8.50;;;3.90;;
44214;SDS011;29884;47.450;19.124;2023-02-28T06:22:54;7.60;;;3.95;;
44214;SDS011;29884;47.450;19.124;2023-02-28T06:25:21;5.20;;;3.28;;
44214;SDS011;29884;47.450;19.124;2023-02-28T06:27:47;7.18;;;3.45;;
44214;SDS011;29884;47.450;19.124;2023-02-28T06:30:13;6.80;;;3.40;;
44214;SDS011;29884;47.450;19.124;2023-02-28T06:32:39;6.93;;;3.53;;
44214;SDS011;29884;47.450;19.124;2023-02-28T06:35:05;9.23;;;3.78;;
44214;SDS011;29884;47.450;19.124;2023-02-28T06:37:32;7.00;;;3.85;;
44214;SDS011;29884;47.450;19.124;2023-02-28T06:39:57;6.55;;;3.50;;
44214;SDS011;29884;47.450;19.124;2023-02-28T06:42:24;6.90;;;3.83;;
44214;SDS011;29884;47.450;19.124;2023-02-28T06:44:54;7.72;;;3.65;;
44214;SDS011;29884;47.450;19.124;2023-02-28T06:47:20;7.95;;;3.45;;
44214;SDS011;29884;47.450;19.124;2023-02-28T06:49:47;6.75;;;3.60;;
44214;SDS011;29884;47.450;19.124;2023-02-28T06:52:12;8.85;;;3.67;;
44214;SDS011;29884;47.450;19.124;2023-02-28T06:54:40;9.68;;;3.88;;
44214;SDS011;29884;47.450;19.124;2023-02-28T06:57:06;8.82;;;3.92;;
44214;SDS011;29884;47.450;19.124;2023-02-28T06:59:31;7.60;;;3.45;;
44214;SDS011;29884;47.450;19.124;2023-02-28T07:01:57;8.27;;;3.92;;
44214;SDS011;29884;47.450;19.124;2023-02-28T07:04:23;9.05;;;3.47;;
44214;SDS011;29884;47.450;19.124;2023-02-28T07:06:49;7.65;;;3.40;;
44214;SDS011;29884;47.450;19.124;2023-02-28T07:09:15;7.35;;;3.70;;
44214;SDS011;29884;47.450;19.124;2023-02-28T07:11:40;7.80;;;3.47;;
44214;SDS011;29884;47.450;19.124;2023-02-28T07:14:07;6.85;;;3.40;;
44214;SDS011;29884;47.450;19.124;2023-02-28T07:16:33;7.70;;;4.18;;
44214;SDS011;29884;47.450;19.124;2023-02-28T07:19:00;7.45;;;3.53;;
44214;SDS011;29884;47.450;19.124;2023-02-28T07:21:25;9.90;;;3.47;;
44214;SDS011;29884;47.450;19.124;2023-02-28T07:23:51;6.32;;;3.42;;
44214;SDS011;29884;47.450;19.124;2023-02-28T07:26:17;7.28;;;3.05;;
44214;SDS011;29884;47.450;19.124;2023-02-28T07:28:45;6.35;;;3.05;;
44214;SDS011;29884;47.450;19.124;2023-02-28T07:31:12;6.78;;;3.45;;
44214;SDS011;29884;47.450;19.124;2023-02-28T07:33:39;6.38;;;3.50;;
44214;SDS011;29884;47.450;19.124;2023-02-28T07:36:09;7.22;;;3.33;;
44214;SDS011;29884;47.450;19.124;2023-02-28T07:38:40;11.68;;;2.53;;
44214;SDS011;29884;47.450;19.124;2023-02-28T07:41:11;6.47;;;3.30;;
44214;SDS011;29884;47.450;19.124;2023-02-28T07:43:36;9.13;;;3.13;;
44214;SDS011;29884;47.450;19.124;2023-02-28T07:46:10;7.18;;;3.08;;
44214;SDS011;29884;47.450;19.124;2023-02-28T07:48:37;8.88;;;3.50;;
44214;SDS011;29884;47.450;19.124;2023-02-28T07:51:03;7.78;;;3.15;;
44214;SDS011;29884;47.450;19.124;2023-02-28T07:53:29;7.95;;;3.20;;
44214;SDS011;29884;47.450;19.124;2023-02-28T07:55:59;8.35;;;3.47;;
44214;SDS011;29884;47.450;19.124;2023-02-28T07:58:26;9.00;;;3.58;;
44214;SDS011;29884;47.450;19.124;2023-02-28T08:00:53;8.60;;;3.30;;
44214;SDS011;29884;47.450;19.124;2023-02-28T08:03:19;8.18;;;3.42;;
44214;SDS011;29884;47.450;19.124;2023-02-28T08:05:46;5.72;;;3.65;;
44214;SDS011;29884;47.450;19.124;2023-02-28T08:08:13;6.30;;;2.95;;
44214;SDS011;29884;47.450;19.124;2023-02-28T08:10:39;8.70;;;2.47;;
44214;SDS011;29884;47.450;19.124;2023-02-28T08:13:05;7.07;;;2.80;;
44214;SDS011;29884;47.450;19.124;2023-02-28T08:15:31;5.30;;;2.80;;
44214;SDS011;29884;47.450;19.124;2023-02-28T08:17:56;8.10;;;3.47;;
44214;SDS011;29884;47.450;19.124;2023-02-28T08:20:23;5.25;;;3.13;;
44214;SDS011;29884;47.450;19.124;2023-02-28T08:22:49;4.10;;;2.47;;
44214;SDS011;29884;47.450;19.124;2023-02-28T08:25:15;4.78;;;2.38;;
44214;SDS011;29884;47.450;19.124;2023-02-28T08:27:41;7.63;;;2.53;;
44214;SDS011;29884;47.450;19.124;2023-02-28T08:30:07;5.88;;;2.17;;
44214;SDS011;29884;47.450;19.124;2023-02-28T08:32:35;6.22;;;2.75;;
44214;SDS011;29884;47.450;19.124;2023-02-28T08:35:01;5.40;;;2.05;;
44214;SDS011;29884;47.450;19.124;2023-02-28T08:37:28;4.47;;;2.42;;
44214;SDS011;29884;47.450;19.124;2023-02-28T08:39:53;3.67;;;2.20;;
44214;SDS011;29884;47.450;19.124;2023-02-28T08:42:19;5.53;;;2.65;;
44214;SDS011;29884;47.450;19.124;2023-02-28T08:44:45;5.40;;;2.85;;
44214;SDS011;29884;47.450;19.124;2023-02-28T08:47:11;6.43;;;2.42;;
44214;SDS011;29884;47.450;19.124;2023-02-28T08:49:37;4.53;;;2.30;;
44214;SDS011;29884;47.450;19.124;2023-02-28T08:52:03;6.70;;;3.13;;
44214;SDS011;29884;47.450;19.124;2023-02-28T08:54:29;6.90;;;2.65;;
44214;SDS011;29884;47.450;19.124;2023-02-28T08:56:56;5.10;;;2.30;;
44214;SDS011;29884;47.450;19.124;2023-02-28T08:59:22;9.18;;;3.13;;
44214;SDS011;29884;47.450;19.124;2023-02-28T09:01:48;4.88;;;2.70;;
44214;SDS011;29884;47.450;19.124;2023-02-28T09:04:13;4.57;;;2.80;;
44214;SDS011;29884;47.450;19.124;2023-02-28T09:06:39;4.95;;;2.75;;
44214;SDS011;29884;47.450;19.124;2023-02-28T09:09:05;6.15;;;2.78;;
44214;SDS011;29884;47.450;19.124;2023-02-28T09:11:32;4.13;;;2.13;;
44214;SDS011;29884;47.450;19.124;2023-02-28T09:13:59;4.63;;;2.60;;
44214;SDS011;29884;47.450;19.124;2023-02-28T09:16:26;5.30;;;2.50;;
44214;SDS011;29884;47.450;19.124;2023-02-28T09:18:51;4.10;;;2.47;;
44214;SDS011;29884;47.450;19.124;2023-02-28T09:21:18;6.57;;;2.70;;
44214;SDS011;29884;47.450;19.124;2023-02-28T09:23:44;9.35;;;2.72;;
44214;SDS011;29884;47.450;19.124;2023-02-28T09:26:19;5.78;;;2.60;;
44214;SDS011;29884;47.450;19.124;2023-02-28T09:28:47;5.03;;;2.88;;
44214;SDS011;29884;47.450;19.124;2023-02-28T09:31:13;4.75;;;2.42;;
44214;SDS011;29884;47.450;19.124;2023-02-28T09:33:41;4.35;;;2.85;;
44214;SDS011;29884;47.450;19.124;2023-02-28T09:36:07;7.90;;;2.90;;
44214;SDS011;29884;47.450;19.124;2023-02-28T09:38:32;3.70;;;2.30;;
44214;SDS011;29884;47.450;19.124;2023-02-28T09:41:00;4.22;;;2.22;;
44214;SDS011;29884;47.450;19.124;2023-02-28T09:43:33;8.20;;;2.50;;
44214;SDS011;29884;47.450;19.124;2023-02-28T09:46:16;6.60;;;3.60;;
44214;SDS011;29884;47.450;19.124;2023-02-28T09:49:23;5.78;;;2.78;;
44214;SDS011;29884;47.450;19.124;2023-02-28T09:54:27;6.50;;;2.78;;
44214;SDS011;29884;47.450;19.124;2023-02-28T10:05:44;7.00;;;2.72;;
44214;SDS011;29884;47.450;19.124;2023-02-28T10:08:23;7.18;;;2.92;;
44214;SDS011;29884;47.450;19.124;2023-02-28T10:11:09;8.63;;;3.00;;
44214;SDS011;29884;47.450;19.124;2023-02-28T10:16:13;3.90;;;2.58;;
44214;SDS011;29884;47.450;19.124;2023-02-28T10:21:18;7.18;;;3.85;;
44214;SDS011;29884;47.450;19.124;2023-02-28T10:24:10;4.65;;;2.45;;
44214;SDS011;29884;47.450;19.124;2023-02-28T10:27:20;6.43;;;3.15;;
44214;SDS011;29884;47.450;19.124;2023-02-28T10:29:50;7.35;;;2.72;;
44214;SDS011;29884;47.450;19.124;2023-02-28T10:32:19;6.15;;;3.03;;
44214;SDS011;29884;47.450;19.124;2023-02-28T10:34:57;6.20;;;2.70;;
44214;SDS011;29884;47.450;19.124;2023-02-28T10:37:45;4.57;;;2.72;;
44214;SDS011;29884;47.450;19.124;2023-02-28T10:43:01;5.60;;;3.15;;
44214;SDS011;29884;47.450;19.124;2023-02-28T10:45:28;7.40;;;3.35;;
44214;SDS011;29884;47.450;19.124;2023-02-28T10:50:51;4.82;;;2.78;;
44214;SDS011;29884;47.450;19.124;2023-02-28T10:55:58;7.80;;;3.03;;
44214;SDS011;29884;47.450;19.124;2023-02-28T10:58:26;5.20;;;3.20;;
44214;SDS011;29884;47.450;19.124;2023-02-28T11:00:56;6.32;;;3.25;;
44214;SDS011;29884;47.450;19.124;2023-02-28T11:03:33;4.13;;;2.88;;
44214;SDS011;29884;47.450;19.124;2023-02-28T11:06:07;5.88;;;3.03;;
44214;SDS011;29884;47.450;19.124;2023-02-28T11:08:54;8.05;;;2.95;;
44214;SDS011;29884;47.450;19.124;2023-02-28T11:11:22;5.18;;;2.97;;
44214;SDS011;29884;47.450;19.124;2023-02-28T11:13:54;6.07;;;2.80;;
44214;SDS011;29884;47.450;19.124;2023-02-28T11:16:22;4.70;;;2.90;;
44214;SDS011;29884;47.450;19.124;2023-02-28T11:19:02;4.63;;;2.67;;
44214;SDS011;29884;47.450;19.124;2023-02-28T11:21:31;5.43;;;2.60;;
44214;SDS011;29884;47.450;19.124;2023-02-28T11:26:58;4.68;;;2.63;;
44214;SDS011;29884;47.450;19.124;2023-02-28T11:29:28;8.73;;;3.05;;
44214;SDS011;29884;47.450;19.124;2023-02-28T11:34:37;3.65;;;2.42;;
44214;SDS011;29884;47.450;19.124;2023-02-28T11:37:03;6.35;;;3.05;;
44214;SDS011;29884;47.450;19.124;2023-02-28T11:39:35;5.22;;;3.63;;
44214;SDS011;29884;47.450;19.124;2023-02-28T11:47:33;5.80;;;2.38;;
44214;SDS011;29884;47.450;19.124;2023-02-28T12:06:27;2.78;;;1.73;;
44214;SDS011;29884;47.450;19.124;2023-02-28T12:28:26;3.90;;;1.65;;
44214;SDS011;29884;47.450;19.124;2023-02-28T12:33:55;5.57;;;1.70;;
44214;SDS011;29884;47.450;19.124;2023-02-28T12:36:26;2.97;;;1.85;;
44214;SDS011;29884;47.450;19.124;2023-02-28T12:38:58;8.10;;;5.28;;
44214;SDS011;29884;47.450;19.124;2023-02-28T12:41:41;8.20;;;3.47;;
44214;SDS011;29884;47.450;19.124;2023-02-28T12:47:02;3.30;;;1.65;;
44214;SDS011;29884;47.450;19.124;2023-02-28T12:49:45;4.95;;;1.85;;
44214;SDS011;29884;47.450;19.124;2023-02-28T12:52:22;3.15;;;1.52;;
44214;SDS011;29884;47.450;19.124;2023-02-28T12:55:07;4.60;;;1.70;;
44214;SDS011;29884;47.450;19.124;2023-02-28T13:00:21;3.38;;;1.77;;
44214;SDS011;29884;47.450;19.124;2023-02-28T13:05:50;5.30;;;1.73;;
44214;SDS011;29884;47.450;19.124;2023-02-28T13:08:59;3.05;;;1.65;;
44214;SDS011;29884;47.450;19.124;2023-02-28T13:20:14;4.18;;;1.90;;
44214;SDS011;29884;47.450;19.124;2023-02-28T13:22:43;3.08;;;1.67;;
44214;SDS011;29884;47.450;19.124;2023-02-28T13:27:54;2.65;;;1.83;;
44214;SDS011;29884;47.450;19.124;2023-02-28T13:36:09;3.67;;;1.85;;
44214;SDS011;29884;47.450;19.124;2023-02-28T13:38:47;5.47;;;1.95;;
44214;SDS011;29884;47.450;19.124;2023-02-28T13:47:20;3.58;;;1.88;;
44214;SDS011;29884;47.450;19.124;2023-02-28T13:49:27;4.70;;;1.42;;
44214;SDS011;29884;47.450;19.124;2023-02-28T13:54:39;3.25;;;1.75;;
44214;SDS011;29884;47.450;19.124;2023-02-28T14:03:03;3.97;;;1.80;;
44214;SDS011;29884;47.450;19.124;2023-02-28T14:11:35;3.63;;;1.85;;
44214;SDS011;29884;47.450;19.124;2023-02-28T14:14:04;4.38;;;1.80;;
44214;SDS011;29884;47.450;19.124;2023-02-28T14:17:04;4.82;;;2.13;;
44214;SDS011;29884;47.450;19.124;2023-02-28T14:19:27;4.75;;;2.17;;
44214;SDS011;29884;47.450;19.124;2023-02-28T14:32:41;3.83;;;2.22;;
44214;SDS011;29884;47.450;19.124;2023-02-28T14:40:58;5.43;;;2.45;;
44214;SDS011;29884;47.450;19.124;2023-02-28T14:43:28;2.78;;;1.65;;
44214;SDS011;29884;47.450;19.124;2023-02-28T14:45:57;5.07;;;2.28;;
44214;SDS011;29884;47.450;19.124;2023-02-28T14:48:25;6.43;;;2.45;;
44214;SDS011;29884;47.450;19.124;2023-02-28T14:50:52;4.45;;;2.75;;
44214;SDS011;29884;47.450;19.124;2023-02-28T14:53:22;4.65;;;2.60;;
44214;SDS011;29884;47.450;19.124;2023-02-28T14:55:51;3.63;;;2.47;;
44214;SDS011;29884;47.450;19.124;2023-02-28T14:58:21;6.97;;;3.10;;
44214;SDS011;29884;47.450;19.124;2023-02-28T15:00:50;5.88;;;3.17;;
44214;SDS011;29884;47.450;19.124;2023-02-28T15:05:53;6.20;;;3.17;;
44214;SDS011;29884;47.450;19.124;2023-02-28T15:08:24;4.95;;;3.00;;
44214;SDS011;29884;47.450;19.124;2023-02-28T15:11:27;5.68;;;2.80;;
44214;SDS011;29884;47.450;19.124;2023-02-28T15:13:49;5.32;;;3.22;;
44214;SDS011;29884;47.450;19.124;2023-02-28T15:16:20;7.13;;;2.85;;
44214;SDS011;29884;47.450;19.124;2023-02-28T15:19:20;8.65;;;3.08;;
44214;SDS011;29884;47.450;19.124;2023-02-28T15:21:55;7.50;;;3.10;;
44214;SDS011;29884;47.450;19.124;2023-02-28T15:24:38;4.68;;;2.40;;
44214;SDS011;29884;47.450;19.124;2023-02-28T15:27:07;5.50;;;2.90;;
44214;SDS011;29884;47.450;19.124;2023-02-28T15:29:44;4.40;;;2.53;;
44214;SDS011;29884;47.450;19.124;2023-02-28T15:35:45;5.65;;;3.28;;
44214;SDS011;29884;47.450;19.124;2023-02-28T15:38:35;4.22;;;2.67;;
44214;SDS011;29884;47.450;19.124;2023-02-28T15:40:53;6.22;;;2.92;;
44214;SDS011;29884;47.450;19.124;2023-02-28T15:43:25;5.05;;;3.20;;
44214;SDS011;29884;47.450;19.124;2023-02-28T15:48:36;7.82;;;3.47;;
44214;SDS011;29884;47.450;19.124;2023-02-28T15:51:21;5.80;;;3.80;;
44214;SDS011;29884;47.450;19.124;2023-02-28T15:53:59;6.93;;;3.33;;
44214;SDS011;29884;47.450;19.124;2023-02-28T15:56:32;6.28;;;3.60;;
44214;SDS011;29884;47.450;19.124;2023-02-28T15:59:04;5.45;;;3.67;;
44214;SDS011;29884;47.450;19.124;2023-02-28T16:01:33;5.68;;;3.78;;
44214;SDS011;29884;47.450;19.124;2023-02-28T16:04:21;5.22;;;3.28;;
44214;SDS011;29884;47.450;19.124;2023-02-28T16:09:23;7.10;;;3.47;;
44214;SDS011;29884;47.450;19.124;2023-02-28T16:11:50;6.05;;;3.65;;
44214;SDS011;29884;47.450;19.124;2023-02-28T16:14:21;6.40;;;3.97;;
44214;SDS011;29884;47.450;19.124;2023-02-28T16:16:51;6.05;;;3.60;;
44214;SDS011;29884;47.450;19.124;2023-02-28T16:19:18;6.80;;;3.50;;
44214;SDS011;29884;47.450;19.124;2023-02-28T16:21:45;7.13;;;3.92;;
44214;SDS011;29884;47.450;19.124;2023-02-28T16:24:11;6.45;;;3.78;;
44214;SDS011;29884;47.450;19.124;2023-02-28T16:26:38;5.38;;;3.88;;
44214;SDS011;29884;47.450;19.124;2023-02-28T16:29:06;7.18;;;3.90;;
44214;SDS011;29884;47.450;19.124;2023-02-28T16:31:34;7.18;;;3.97;;
44214;SDS011;29884;47.450;19.124;2023-02-28T16:34:03;6.63;;;3.88;;
44214;SDS011;29884;47.450;19.124;2023-02-28T16:36:29;7.30;;;4.30;;
44214;SDS011;29884;47.450;19.124;2023-02-28T16:38:55;7.72;;;4.15;;
44214;SDS011;29884;47.450;19.124;2023-02-28T16:41:22;6.45;;;4.20;;
44214;SDS011;29884;47.450;19.124;2023-02-28T16:43:51;6.60;;;4.38;;
44214;SDS011;29884;47.450;19.124;2023-02-28T16:46:19;5.82;;;4.10;;
44214;SDS011;29884;47.450;19.124;2023-02-28T16:48:45;6.10;;;4.22;;
44214;SDS011;29884;47.450;19.124;2023-02-28T16:51:16;8.68;;;4.43;;
44214;SDS011;29884;47.450;19.124;2023-02-28T16:53:43;6.32;;;4.32;;
44214;SDS011;29884;47.450;19.124;2023-02-28T16:56:19;6.55;;;4.25;;
44214;SDS011;29884;47.450;19.124;2023-02-28T16:58:47;7.57;;;4.38;;
44214;SDS011;29884;47.450;19.124;2023-02-28T17:01:14;7.00;;;4.40;;
44214;SDS011;29884;47.450;19.124;2023-02-28T17:03:41;8.93;;;5.05;;
44214;SDS011;29884;47.450;19.124;2023-02-28T17:06:19;9.25;;;6.07;;
44214;SDS011;29884;47.450;19.124;2023-02-28T17:08:49;9.57;;;5.38;;
44214;SDS011;29884;47.450;19.124;2023-02-28T17:11:15;8.85;;;5.20;;
44214;SDS011;29884;47.450;19.124;2023-02-28T17:13:41;6.68;;;4.53;;
44214;SDS011;29884;47.450;19.124;2023-02-28T17:16:17;9.30;;;5.03;;
44214;SDS011;29884;47.450;19.124;2023-02-28T17:18:58;7.38;;;4.93;;
44214;SDS011;29884;47.450;19.124;2023-02-28T17:21:26;9.73;;;5.45;;
44214;SDS011;29884;47.450;19.124;2023-02-28T17:23:52;9.20;;;5.03;;
44214;SDS011;29884;47.450;19.124;2023-02-28T17:26:18;8.45;;;4.75;;
44214;SDS011;29884;47.450;19.124;2023-02-28T17:28:47;6.45;;;4.40;;
44214;SDS011;29884;47.450;19.124;2023-02-28T17:31:13;7.18;;;4.45;;
44214;SDS011;29884;47.450;19.124;2023-02-28T17:33:39;7.57;;;4.57;;
44214;SDS011;29884;47.450;19.124;2023-02-28T17:36:05;8.63;;;5.05;;
44214;SDS011;29884;47.450;19.124;2023-02-28T17:38:34;6.82;;;4.47;;
44214;SDS011;29884;47.450;19.124;2023-02-28T17:41:00;7.10;;;4.90;;
44214;SDS011;29884;47.450;19.124;2023-02-28T17:43:26;7.75;;;4.95;;
44214;SDS011;29884;47.450;19.124;2023-02-28T17:45:52;10.15;;;5.68;;
44214;SDS011;29884;47.450;19.124;2023-02-28T17:48:18;9.40;;;5.00;;
44214;SDS011;29884;47.450;19.124;2023-02-28T17:50:45;6.82;;;4.93;;
44214;SDS011;29884;47.450;19.124;2023-02-28T17:53:10;10.15;;;5.70;;
44214;SDS011;29884;47.450;19.124;2023-02-28T17:55:36;9.55;;;5.57;;
44214;SDS011;29884;47.450;19.124;2023-02-28T17:58:02;9.68;;;5.90;;
44214;SDS011;29884;47.450;19.124;2023-02-28T18:00:28;9.68;;;5.90;;